sensor_id;sensor_type;location;lat;lon;timestamp;temperature;humidity
28546;DHT22;15749;49.606;8.738;2024-01-16T13:48:59;2.80;99.90
28546;DHT22;15749;49.606;8.738;2024-01-16T14:14:42;4.10;99.90
28546;DHT22;15749;49.606;8.738;2024-01-16T17:57:19;6.60;99.90
28546;DHT22;15749;49.606;8.738;2024-01-16T17:59:57;8.50;99.90
28546;DHT22;15749;49.606;8.738;2024-01-16T18:02:30;8.60;99.90
28546;DHT22;15749;49.606;8.738;2024-01-16T18:05:00;8.60;99.90
28546;DHT22;15749;49.606;8.738;2024-01-16T20:05:09;8.70;99.90
28546;DHT22;15749;49.606;8.738;2024-01-16T20:09:55;8.30;99.90
28546;DHT22;15749;49.606;8.738;2024-01-16T22:10:46;8.40;99.90
28546;DHT22;15749;49.606;8.738;2024-01-16T22:13:15;7.70;99.90
28546;DHT22;15749;49.606;8.738;2024-01-16T22:15:46;7.80;99.90
28546;DHT22;15749;49.606;8.738;2024-01-16T22:18:15;7.90;99.90
28546;DHT22;15749;49.606;8.738;2024-01-16T22:20:45;7.90;99.90
28546;DHT22;15749;49.606;8.738;2024-01-16T22:23:14;7.90;99.90
28546;DHT22;15749;49.606;8.738;2024-01-16T22:25:43;7.90;99.90
28546;DHT22;15749;49.606;8.738;2024-01-16T22:28:14;7.80;99.90
28546;DHT22;15749;49.606;8.738;2024-01-16T22:30:43;7.80;99.90
28546;DHT22;15749;49.606;8.738;2024-01-16T22:33:13;7.70;99.90
28546;DHT22;15749;49.606;8.738;2024-01-16T22:47:45;7.70;99.90
28546;DHT22;15749;49.606;8.738;2024-01-16T22:50:15;7.10;99.90
28546;DHT22;15749;49.606;8.738;2024-01-16T22:52:44;7.20;99.90
28546;DHT22;15749;49.606;8.738;2024-01-16T22:55:13;7.30;99.90
28546;DHT22;15749;49.606;8.738;2024-01-16T22:57:42;7.40;99.90
28546;DHT22;15749;49.606;8.738;2024-01-16T23:00:12;7.40;99.90
28546;DHT22;15749;49.606;8.738;2024-01-16T23:02:49;7.40;99.90
28546;DHT22;15749;49.606;8.738;2024-01-16T23:05:19;7.40;99.90
28546;DHT22;15749;49.606;8.738;2024-01-16T23:07:48;7.30;99.90
28546;DHT22;15749;49.606;8.738;2024-01-16T23:10:17;7.30;99.90
28546;DHT22;15749;49.606;8.738;2024-01-16T23:12:47;7.30;99.90
28546;DHT22;15749;49.606;8.738;2024-01-16T23:15:16;7.20;99.90
28546;DHT22;15749;49.606;8.738;2024-01-16T23:17:46;7.20;99.90
28546;DHT22;15749;49.606;8.738;2024-01-16T23:20:17;7.10;99.90
28546;DHT22;15749;49.606;8.738;2024-01-16T23:22:47;7.10;99.90
28546;DHT22;15749;49.606;8.738;2024-01-16T23:25:16;7.10;99.90
28546;DHT22;15749;49.606;8.738;2024-01-16T23:27:45;7.00;99.90
28546;DHT22;15749;49.606;8.738;2024-01-16T23:30:17;7.00;99.90
28546;DHT22;15749;49.606;8.738;2024-01-16T23:32:46;6.90;99.90
28546;DHT22;15749;49.606;8.738;2024-01-16T23:35:17;6.90;99.90
28546;DHT22;15749;49.606;8.738;2024-01-16T23:37:46;6.90;99.90
28546;DHT22;15749;49.606;8.738;2024-01-16T23:40:19;6.90;99.90
28546;DHT22;15749;49.606;8.738;2024-01-16T23:42:48;6.90;99.90
28546;DHT22;15749;49.606;8.738;2024-01-16T23:45:17;6.80;99.90
28546;DHT22;15749;49.606;8.738;2024-01-16T23:47:59;6.80;99.90
28546;DHT22;15749;49.606;8.738;2024-01-16T23:50:31;6.80;99.90
28546;DHT22;15749;49.606;8.738;2024-01-16T23:53:01;6.70;99.90
28546;DHT22;15749;49.606;8.738;2024-01-16T23:55:31;6.70;99.90
28546;DHT22;15749;49.606;8.738;2024-01-16T23:58:00;6.70;99.90
